sensor_id;sensor_type;location;lat;lon;timestamp;temperature;humidity
1830;DHT22;914;48.118;11.600;2022-12-18T00:01:30;-1.00;97.30
1830;DHT22;914;48.118;11.600;2022-12-18T00:03:57;-0.70;96.80
1830;DHT22;914;48.118;11.600;2022-12-18T00:06:25;-0.90;96.50
1830;DHT22;914;48.118;11.600;2022-12-18T00:08:52;-0.80;96.90
1830;DHT22;914;48.118;11.600;2022-12-18T00:11:20;-1.20;97.10
1830;DHT22;914;48.118;11.600;2022-12-18T00:13:49;-1.20;97.60
1830;DHT22;914;48.118;11.600;2022-12-18T00:16:20;-1.00;97.80
1830;DHT22;914;48.118;11.600;2022-12-18T00:18:47;-1.00;97.60
1830;DHT22;914;48.118;11.600;2022-12-18T00:21:13;-0.80;97.50
1830;DHT22;914;48.118;11.600;2022-12-18T00:23:40;-1.00;97.00
1830;DHT22;914;48.118;11.600;2022-12-18T00:26:10;-0.70;96.70
1830;DHT22;914;48.118;11.600;2022-12-18T00:28:36;-0.80;96.60
1830;DHT22;914;48.118;11.600;2022-12-18T00:31:11;-0.50;96.60
1830;DHT22;914;48.118;11.600;2022-12-18T00:33:40;-0.60;96.20
1830;DHT22;914;48.118;11.600;2022-12-18T00:36:13;-0.60;96.30
1830;DHT22;914;48.118;11.600;2022-12-18T00:38:39;-0.60;96.40
1830;DHT22;914;48.118;11.600;2022-12-18T00:41:06;-1.00;95.70
1830;DHT22;914;48.118;11.600;2022-12-18T00:43:32;-0.80;96.90
1830;DHT22;914;48.118;11.600;2022-12-18T00:45:57;-0.80;96.90
1830;DHT22;914;48.118;11.600;2022-12-18T00:48:23;-0.70;96.80
1830;DHT22;914;48.118;11.600;2022-12-18T00:50:50;-0.60;96.80
1830;DHT22;914;48.118;11.600;2022-12-18T00:53:16;-0.70;96.60
1830;DHT22;914;48.118;11.600;2022-12-18T00:55:46;-0.80;96.50
1830;DHT22;914;48.118;11.600;2022-12-18T00:58:13;-0.80;97.20
1830;DHT22;914;48.118;11.600;2022-12-18T01:00:39;-0.80;97.10
1830;DHT22;914;48.118;11.600;2022-12-18T01:03:05;-1.10;96.70
1830;DHT22;914;48.118;11.600;2022-12-18T01:05:32;-1.10;97.10
1830;DHT22;914;48.118;11.600;2022-12-18T01:07:58;-1.30;97.10
1830;DHT22;914;48.118;11.600;2022-12-18T01:10:27;-1.10;97.60
1830;DHT22;914;48.118;11.600;2022-12-18T01:12:53;-1.10;97.60
1830;DHT22;914;48.118;11.600;2022-12-18T01:15:19;-1.10;97.00
1830;DHT22;914;48.118;11.600;2022-12-18T01:17:47;-0.90;97.80
1830;DHT22;914;48.118;11.600;2022-12-18T01:20:16;-1.30;96.80
1830;DHT22;914;48.118;11.600;2022-12-18T01:22:41;-1.20;97.50
1830;DHT22;914;48.118;11.600;2022-12-18T01:25:07;-1.10;97.30
1830;DHT22;914;48.118;11.600;2022-12-18T01:27:39;-1.00;97.60
1830;DHT22;914;48.118;11.600;2022-12-18T01:30:05;-1.00;96.90
1830;DHT22;914;48.118;11.600;2022-12-18T01:32:31;-1.70;96.60
1830;DHT22;914;48.118;11.600;2022-12-18T01:35:00;-1.40;97.90
1830;DHT22;914;48.118;11.600;2022-12-18T01:37:25;-1.40;97.50
1830;DHT22;914;48.118;11.600;2022-12-18T01:39:54;-1.30;97.60
1830;DHT22;914;48.118;11.600;2022-12-18T01:42:24;-1.60;97.80
1830;DHT22;914;48.118;11.600;2022-12-18T01:47:45;-1.20;97.90
1830;DHT22;914;48.118;11.600;2022-12-18T01:50:24;-1.20;97.70
1830;DHT22;914;48.118;11.600;2022-12-18T01:53:02;-1.20;97.60
1830;DHT22;914;48.118;11.600;2022-12-18T01:58:38;-0.90;97.60
1830;DHT22;914;48.118;11.600;2022-12-18T02:01:08;-0.70;97.20
1830;DHT22;914;48.118;11.600;2022-12-18T02:03:37;-0.90;96.60
1830;DHT22;914;48.118;11.600;2022-12-18T02:06:14;-1.00;97.10
1830;DHT22;914;48.118;11.600;2022-12-18T02:08:50;-1.10;97.10
1830;DHT22;914;48.118;11.600;2022-12-18T02:12:05;-1.20;97.50
1830;DHT22;914;48.118;11.600;2022-12-18T02:17:22;-1.60;97.60
1830;DHT22;914;48.118;11.600;2022-12-18T02:28:31;-0.90;96.70
1830;DHT22;914;48.118;11.600;2022-12-18T02:31:00;-1.30;97.00
1830;DHT22;914;48.118;11.600;2022-12-18T02:33:31;-1.00;97.30
1830;DHT22;914;48.118;11.600;2022-12-18T02:35:59;-0.80;96.70
1830;DHT22;914;48.118;11.600;2022-12-18T02:38:25;-0.70;96.70
1830;DHT22;914;48.118;11.600;2022-12-18T02:40:53;-1.00;96.10
1830;DHT22;914;48.118;11.600;2022-12-18T02:43:19;-0.90;96.80
1830;DHT22;914;48.118;11.600;2022-12-18T02:45:52;-0.80;96.70
1830;DHT22;914;48.118;11.600;2022-12-18T02:48:24;-0.80;96.40
1830;DHT22;914;48.118;11.600;2022-12-18T02:51:18;-0.90;96.10
1830;DHT22;914;48.118;11.600;2022-12-18T02:53:53;-1.10;96.80
1830;DHT22;914;48.118;11.600;2022-12-18T02:56:44;-0.80;96.80
1830;DHT22;914;48.118;11.600;2022-12-18T02:59:19;-1.10;96.60
1830;DHT22;914;48.118;11.600;2022-12-18T03:04:36;-1.40;96.90
1830;DHT22;914;48.118;11.600;2022-12-18T03:07:08;-1.40;97.50
1830;DHT22;914;48.118;11.600;2022-12-18T03:09:42;-1.50;97.80
1830;DHT22;914;48.118;11.600;2022-12-18T03:12:22;-1.50;98.30
1830;DHT22;914;48.118;11.600;2022-12-18T03:15:12;-1.70;97.50
1830;DHT22;914;48.118;11.600;2022-12-18T03:17:50;-1.80;97.90
1830;DHT22;914;48.118;11.600;2022-12-18T03:20:20;-1.70;98.30
1830;DHT22;914;48.118;11.600;2022-12-18T03:22:55;-1.60;98.80
1830;DHT22;914;48.118;11.600;2022-12-18T03:25:24;-1.40;98.40
1830;DHT22;914;48.118;11.600;2022-12-18T03:27:55;-1.30;98.30
1830;DHT22;914;48.118;11.600;2022-12-18T03:30:22;-1.40;97.90
1830;DHT22;914;48.118;11.600;2022-12-18T03:33:08;-1.20;98.40
1830;DHT22;914;48.118;11.600;2022-12-18T03:35:38;-1.00;98.10
1830;DHT22;914;48.118;11.600;2022-12-18T03:38:08;-1.10;97.80
1830;DHT22;914;48.118;11.600;2022-12-18T03:41:04;-0.80;97.40
1830;DHT22;914;48.118;11.600;2022-12-18T03:49:11;-1.30;97.20
1830;DHT22;914;48.118;11.600;2022-12-18T03:54:45;-1.40;97.60
1830;DHT22;914;48.118;11.600;2022-12-18T03:57:25;-1.00;98.00
1830;DHT22;914;48.118;11.600;2022-12-18T03:59:55;-1.10;97.20
1830;DHT22;914;48.118;11.600;2022-12-18T04:02:23;-1.30;97.70
1830;DHT22;914;48.118;11.600;2022-12-18T04:04:52;-1.10;97.80
1830;DHT22;914;48.118;11.600;2022-12-18T04:07:19;-0.60;97.10
1830;DHT22;914;48.118;11.600;2022-12-18T04:09:49;-0.60;96.10
1830;DHT22;914;48.118;11.600;2022-12-18T04:12:23;-1.70;96.10
1830;DHT22;914;48.118;11.600;2022-12-18T04:14:49;-1.40;98.10
1830;DHT22;914;48.118;11.600;2022-12-18T04:17:14;-1.00;97.80
1830;DHT22;914;48.118;11.600;2022-12-18T04:19:40;-0.80;97.30
1830;DHT22;914;48.118;11.600;2022-12-18T04:22:06;-0.70;97.00
1830;DHT22;914;48.118;11.600;2022-12-18T04:24:31;-0.80;96.60
1830;DHT22;914;48.118;11.600;2022-12-18T04:26:57;-1.00;96.40
1830;DHT22;914;48.118;11.600;2022-12-18T04:29:26;-1.10;96.80
1830;DHT22;914;48.118;11.600;2022-12-18T04:31:51;-1.00;97.20
1830;DHT22;914;48.118;11.600;2022-12-18T04:34:23;-1.20;97.00
1830;DHT22;914;48.118;11.600;2022-12-18T04:36:52;-1.00;97.10
1830;DHT22;914;48.118;11.600;2022-12-18T04:39:18;-1.20;96.20
1830;DHT22;914;48.118;11.600;2022-12-18T04:41:43;-1.50;96.90
1830;DHT22;914;48.118;11.600;2022-12-18T04:44:09;-1.20;97.20
1830;DHT22;914;48.118;11.600;2022-12-18T04:46:35;-1.50;97.40
1830;DHT22;914;48.118;11.600;2022-12-18T04:49:00;-1.20;97.60
1830;DHT22;914;48.118;11.600;2022-12-18T04:51:29;-1.10;97.00
1830;DHT22;914;48.118;11.600;2022-12-18T04:53:55;-1.00;96.90
1830;DHT22;914;48.118;11.600;2022-12-18T04:56:21;-1.30;96.50
1830;DHT22;914;48.118;11.600;2022-12-18T04:58:46;-1.00;97.00
1830;DHT22;914;48.118;11.600;2022-12-18T05:01:14;-1.00;96.60
1830;DHT22;914;48.118;11.600;2022-12-18T05:03:43;-1.20;97.00
1830;DHT22;914;48.118;11.600;2022-12-18T05:06:09;-1.40;96.80
1830;DHT22;914;48.118;11.600;2022-12-18T05:08:41;-1.10;97.10
1830;DHT22;914;48.118;11.600;2022-12-18T05:11:12;-0.90;96.80
1830;DHT22;914;48.118;11.600;2022-12-18T05:13:41;-0.80;96.30
1830;DHT22;914;48.118;11.600;2022-12-18T05:16:08;-0.90;96.30
1830;DHT22;914;48.118;11.600;2022-12-18T05:18:34;-0.80;95.90
1830;DHT22;914;48.118;11.600;2022-12-18T05:21:00;-0.70;95.70
1830;DHT22;914;48.118;11.600;2022-12-18T05:23:28;-0.90;95.90
1830;DHT22;914;48.118;11.600;2022-12-18T05:25:59;-1.10;96.30
1830;DHT22;914;48.118;11.600;2022-12-18T05:28:30;-1.20;96.50
1830;DHT22;914;48.118;11.600;2022-12-18T05:30:59;-1.10;96.50
1830;DHT22;914;48.118;11.600;2022-12-18T05:33:30;-0.90;96.50
1830;DHT22;914;48.118;11.600;2022-12-18T05:36:04;-1.00;96.00
1830;DHT22;914;48.118;11.600;2022-12-18T05:38:32;-1.20;96.10
1830;DHT22;914;48.118;11.600;2022-12-18T05:41:05;-1.30;96.30
1830;DHT22;914;48.118;11.600;2022-12-18T05:43:33;-1.30;96.30
1830;DHT22;914;48.118;11.600;2022-12-18T05:46:03;-1.20;96.80
1830;DHT22;914;48.118;11.600;2022-12-18T05:48:29;-1.10;96.50
1830;DHT22;914;48.118;11.600;2022-12-18T05:50:54;-1.00;96.40
1830;DHT22;914;48.118;11.600;2022-12-18T05:53:20;-0.90;96.10
1830;DHT22;914;48.118;11.600;2022-12-18T05:55:47;-1.30;95.30
1830;DHT22;914;48.118;11.600;2022-12-18T05:58:13;-1.70;97.30
1830;DHT22;914;48.118;11.600;2022-12-18T06:00:43;-1.50;97.40
1830;DHT22;914;48.118;11.600;2022-12-18T06:03:11;-1.40;96.90
1830;DHT22;914;48.118;11.600;2022-12-18T06:05:42;-1.40;96.80
1830;DHT22;914;48.118;11.600;2022-12-18T06:08:09;-1.20;96.50
1830;DHT22;914;48.118;11.600;2022-12-18T06:10:35;-1.00;96.40
1830;DHT22;914;48.118;11.600;2022-12-18T06:13:02;-1.70;95.10
1830;DHT22;914;48.118;11.600;2022-12-18T06:15:31;-1.50;96.70
1830;DHT22;914;48.118;11.600;2022-12-18T06:17:56;-1.70;96.60
1830;DHT22;914;48.118;11.600;2022-12-18T06:20:22;-1.60;96.80
1830;DHT22;914;48.118;11.600;2022-12-18T06:22:51;-1.50;97.20
1830;DHT22;914;48.118;11.600;2022-12-18T06:25:17;-1.30;97.20
1830;DHT22;914;48.118;11.600;2022-12-18T06:27:43;-1.70;97.20
1830;DHT22;914;48.118;11.600;2022-12-18T06:30:15;-1.60;97.20
1830;DHT22;914;48.118;11.600;2022-12-18T06:32:41;-1.40;96.90
1830;DHT22;914;48.118;11.600;2022-12-18T06:35:07;-1.30;96.70
1830;DHT22;914;48.118;11.600;2022-12-18T06:37:32;-1.20;96.30
1830;DHT22;914;48.118;11.600;2022-12-18T06:39:58;-1.00;96.40
1830;DHT22;914;48.118;11.600;2022-12-18T06:42:24;-1.60;95.40
1830;DHT22;914;48.118;11.600;2022-12-18T06:44:50;-1.50;96.80
1830;DHT22;914;48.118;11.600;2022-12-18T06:47:19;-1.30;96.80
1830;DHT22;914;48.118;11.600;2022-12-18T06:49:44;-1.10;96.40
1830;DHT22;914;48.118;11.600;2022-12-18T06:52:13;-0.80;96.10
1830;DHT22;914;48.118;11.600;2022-12-18T06:54:39;-1.00;95.30
1830;DHT22;914;48.118;11.600;2022-12-18T06:57:08;-0.80;95.40
1830;DHT22;914;48.118;11.600;2022-12-18T06:59:34;-1.00;94.70
1830;DHT22;914;48.118;11.600;2022-12-18T07:01:59;-1.40;94.90
1830;DHT22;914;48.118;11.600;2022-12-18T07:04:31;-1.30;95.40
1830;DHT22;914;48.118;11.600;2022-12-18T07:06:57;-1.10;95.20
1830;DHT22;914;48.118;11.600;2022-12-18T07:09:24;-1.10;95.20
1830;DHT22;914;48.118;11.600;2022-12-18T07:11:49;-1.20;95.30
1830;DHT22;914;48.118;11.600;2022-12-18T07:14:15;-1.10;95.40
1830;DHT22;914;48.118;11.600;2022-12-18T07:16:44;-0.90;95.40
1830;DHT22;914;48.118;11.600;2022-12-18T07:19:10;-0.90;95.30
1830;DHT22;914;48.118;11.600;2022-12-18T07:21:35;-1.00;95.10
1830;DHT22;914;48.118;11.600;2022-12-18T07:24:07;-1.00;95.00
1830;DHT22;914;48.118;11.600;2022-12-18T07:26:33;-1.40;94.70
1830;DHT22;914;48.118;11.600;2022-12-18T07:28:58;-2.40;94.40
1830;DHT22;914;48.118;11.600;2022-12-18T07:31:25;-2.10;96.60
1830;DHT22;914;48.118;11.600;2022-12-18T07:33:52;-1.70;97.00
1830;DHT22;914;48.118;11.600;2022-12-18T07:36:21;-1.40;96.50
1830;DHT22;914;48.118;11.600;2022-12-18T07:38:47;-1.40;96.10
1830;DHT22;914;48.118;11.600;2022-12-18T07:41:13;-1.20;96.10
1830;DHT22;914;48.118;11.600;2022-12-18T07:43:42;-1.20;95.30
1830;DHT22;914;48.118;11.600;2022-12-18T07:46:09;-1.30;95.50
1830;DHT22;914;48.118;11.600;2022-12-18T07:48:35;-1.40;95.40
1830;DHT22;914;48.118;11.600;2022-12-18T07:51:03;-1.10;95.80
1830;DHT22;914;48.118;11.600;2022-12-18T07:53:29;-1.50;95.40
1830;DHT22;914;48.118;11.600;2022-12-18T07:56:01;-1.30;95.80
1830;DHT22;914;48.118;11.600;2022-12-18T07:58:28;-1.20;95.40
1830;DHT22;914;48.118;11.600;2022-12-18T08:00:54;-1.20;95.60
1830;DHT22;914;48.118;11.600;2022-12-18T08:03:19;-1.00;95.30
1830;DHT22;914;48.118;11.600;2022-12-18T08:05:45;-1.40;94.60
1830;DHT22;914;48.118;11.600;2022-12-18T08:08:11;-2.00;95.40
1830;DHT22;914;48.118;11.600;2022-12-18T08:10:37;-1.80;96.30
1830;DHT22;914;48.118;11.600;2022-12-18T08:13:03;-1.70;96.30
1830;DHT22;914;48.118;11.600;2022-12-18T08:15:29;-1.40;96.40
1830;DHT22;914;48.118;11.600;2022-12-18T08:17:58;-1.20;95.70
1830;DHT22;914;48.118;11.600;2022-12-18T08:20:23;-1.30;95.40
1830;DHT22;914;48.118;11.600;2022-12-18T08:22:49;-1.60;95.70
1830;DHT22;914;48.118;11.600;2022-12-18T08:25:15;-1.40;95.70
1830;DHT22;914;48.118;11.600;2022-12-18T08:27:41;-2.00;94.50
1830;DHT22;914;48.118;11.600;2022-12-18T08:30:07;-2.00;96.10
1830;DHT22;914;48.118;11.600;2022-12-18T08:32:33;-1.90;96.50
1830;DHT22;914;48.118;11.600;2022-12-18T08:34:58;-2.10;96.00
1830;DHT22;914;48.118;11.600;2022-12-18T08:37:24;-2.00;96.90
1830;DHT22;914;48.118;11.600;2022-12-18T08:39:50;-1.70;96.80
1830;DHT22;914;48.118;11.600;2022-12-18T08:42:16;-1.50;96.60
1830;DHT22;914;48.118;11.600;2022-12-18T08:45:00;-1.50;96.70
1830;DHT22;914;48.118;11.600;2022-12-18T08:47:26;-1.50;96.70
1830;DHT22;914;48.118;11.600;2022-12-18T08:49:51;-1.30;96.40
1830;DHT22;914;48.118;11.600;2022-12-18T08:52:17;-1.90;95.60
1830;DHT22;914;48.118;11.600;2022-12-18T08:54:43;-2.60;95.60
1830;DHT22;914;48.118;11.600;2022-12-18T08:57:08;-2.20;97.50
1830;DHT22;914;48.118;11.600;2022-12-18T08:59:34;-2.30;97.50
1830;DHT22;914;48.118;11.600;2022-12-18T09:02:00;-1.90;97.50
1830;DHT22;914;48.118;11.600;2022-12-18T09:04:26;-1.70;97.00
1830;DHT22;914;48.118;11.600;2022-12-18T09:06:51;-1.60;96.70
1830;DHT22;914;48.118;11.600;2022-12-18T09:09:17;-1.60;96.50
1830;DHT22;914;48.118;11.600;2022-12-18T09:11:43;-1.30;96.70
1830;DHT22;914;48.118;11.600;2022-12-18T09:14:09;-1.10;96.10
1830;DHT22;914;48.118;11.600;2022-12-18T09:16:35;-2.40;94.90
1830;DHT22;914;48.118;11.600;2022-12-18T09:19:03;-2.20;97.50
1830;DHT22;914;48.118;11.600;2022-12-18T09:21:31;-1.80;97.70
1830;DHT22;914;48.118;11.600;2022-12-18T09:23:57;-1.50;97.40
1830;DHT22;914;48.118;11.600;2022-12-18T09:26:24;-1.30;96.40
1830;DHT22;914;48.118;11.600;2022-12-18T09:28:51;-1.60;96.10
1830;DHT22;914;48.118;11.600;2022-12-18T09:31:20;-1.40;96.40
1830;DHT22;914;48.118;11.600;2022-12-18T09:33:46;-1.20;96.30
1830;DHT22;914;48.118;11.600;2022-12-18T09:36:14;-0.80;96.20
1830;DHT22;914;48.118;11.600;2022-12-18T09:38:41;-0.50;95.90
1830;DHT22;914;48.118;11.600;2022-12-18T09:43:58;-0.80;93.60
1830;DHT22;914;48.118;11.600;2022-12-18T09:46:36;-1.20;95.20
1830;DHT22;914;48.118;11.600;2022-12-18T09:49:06;-0.90;95.10
1830;DHT22;914;48.118;11.600;2022-12-18T09:52:08;-0.60;94.60
1830;DHT22;914;48.118;11.600;2022-12-18T09:54:38;-0.50;94.10
1830;DHT22;914;48.118;11.600;2022-12-18T09:57:05;-0.50;93.80
1830;DHT22;914;48.118;11.600;2022-12-18T09:59:38;-1.80;93.90
1830;DHT22;914;48.118;11.600;2022-12-18T10:04:39;-1.30;95.50
1830;DHT22;914;48.118;11.600;2022-12-18T10:07:15;-1.20;94.90
1830;DHT22;914;48.118;11.600;2022-12-18T10:09:57;-1.30;94.30
1830;DHT22;914;48.118;11.600;2022-12-18T10:12:43;-1.00;95.20
1830;DHT22;914;48.118;11.600;2022-12-18T10:15:16;-0.60;94.80
1830;DHT22;914;48.118;11.600;2022-12-18T10:17:56;-0.50;94.60
1830;DHT22;914;48.118;11.600;2022-12-18T10:20:48;-0.60;93.90
1830;DHT22;914;48.118;11.600;2022-12-18T10:23:33;-1.20;93.90
1830;DHT22;914;48.118;11.600;2022-12-18T10:26:10;-1.70;93.80
1830;DHT22;914;48.118;11.600;2022-12-18T10:28:40;-1.30;95.00
1830;DHT22;914;48.118;11.600;2022-12-18T10:31:20;-1.10;94.70
1830;DHT22;914;48.118;11.600;2022-12-18T10:33:46;-1.10;94.80
1830;DHT22;914;48.118;11.600;2022-12-18T10:36:12;-2.10;93.50
1830;DHT22;914;48.118;11.600;2022-12-18T10:38:38;-2.20;96.30
1830;DHT22;914;48.118;11.600;2022-12-18T10:41:25;-1.70;97.00
1830;DHT22;914;48.118;11.600;2022-12-18T10:44:21;-1.90;94.90
1830;DHT22;914;48.118;11.600;2022-12-18T10:46:50;-2.00;97.00
1830;DHT22;914;48.118;11.600;2022-12-18T10:52:05;-1.20;96.40
1830;DHT22;914;48.118;11.600;2022-12-18T10:54:32;-1.20;95.30
1830;DHT22;914;48.118;11.600;2022-12-18T10:57:20;-1.10;95.20
1830;DHT22;914;48.118;11.600;2022-12-18T10:59:56;-1.10;94.40
1830;DHT22;914;48.118;11.600;2022-12-18T11:02:33;-1.80;94.90
1830;DHT22;914;48.118;11.600;2022-12-18T11:04:59;-1.90;96.20
1830;DHT22;914;48.118;11.600;2022-12-18T11:07:25;-1.80;96.30
1830;DHT22;914;48.118;11.600;2022-12-18T11:10:01;-1.40;96.50
1830;DHT22;914;48.118;11.600;2022-12-18T11:12:28;-0.90;95.90
1830;DHT22;914;48.118;11.600;2022-12-18T11:14:56;-1.00;94.50
1830;DHT22;914;48.118;11.600;2022-12-18T11:19:57;-1.60;94.70
1830;DHT22;914;48.118;11.600;2022-12-18T11:22:32;-2.30;94.50
1830;DHT22;914;48.118;11.600;2022-12-18T11:25:05;-1.60;96.90
1830;DHT22;914;48.118;11.600;2022-12-18T11:27:32;-1.10;96.70
1830;DHT22;914;48.118;11.600;2022-12-18T11:30:10;-0.60;96.20
1830;DHT22;914;48.118;11.600;2022-12-18T11:32:43;-0.70;95.00
1830;DHT22;914;48.118;11.600;2022-12-18T11:38:25;-0.10;94.30
1830;DHT22;914;48.118;11.600;2022-12-18T11:41:27;-0.60;92.90
1830;DHT22;914;48.118;11.600;2022-12-18T11:44:28;-1.10;94.60
1830;DHT22;914;48.118;11.600;2022-12-18T11:47:13;-0.70;94.60
1830;DHT22;914;48.118;11.600;2022-12-18T11:49:41;-0.70;94.60
1830;DHT22;914;48.118;11.600;2022-12-18T11:52:30;-0.40;94.60
1830;DHT22;914;48.118;11.600;2022-12-18T11:55:00;-0.70;93.30
1830;DHT22;914;48.118;11.600;2022-12-18T11:57:54;-0.70;94.00
1830;DHT22;914;48.118;11.600;2022-12-18T12:00:23;-1.60;93.60
1830;DHT22;914;48.118;11.600;2022-12-18T12:05:57;-2.20;97.20
1830;DHT22;914;48.118;11.600;2022-12-18T12:08:39;-2.30;96.60
1830;DHT22;914;48.118;11.600;2022-12-18T12:14:21;-1.40;96.70
1830;DHT22;914;48.118;11.600;2022-12-18T12:22:48;-0.80;94.90
1830;DHT22;914;48.118;11.600;2022-12-18T12:25:33;-0.60;94.90
1830;DHT22;914;48.118;11.600;2022-12-18T12:31:03;-0.50;93.80
1830;DHT22;914;48.118;11.600;2022-12-18T12:33:56;-0.70;94.10
1830;DHT22;914;48.118;11.600;2022-12-18T12:38:56;-1.00;94.40
1830;DHT22;914;48.118;11.600;2022-12-18T12:41:25;-0.90;93.90
1830;DHT22;914;48.118;11.600;2022-12-18T12:44:22;-0.60;93.50
1830;DHT22;914;48.118;11.600;2022-12-18T12:46:49;-1.00;93.80
1830;DHT22;914;48.118;11.600;2022-12-18T12:49:19;-0.80;94.10
1830;DHT22;914;48.118;11.600;2022-12-18T12:52:16;-0.50;94.20
1830;DHT22;914;48.118;11.600;2022-12-18T12:54:43;-0.30;94.10
1830;DHT22;914;48.118;11.600;2022-12-18T12:57:17;-0.40;93.80
1830;DHT22;914;48.118;11.600;2022-12-18T13:00:19;-0.40;93.60
1830;DHT22;914;48.118;11.600;2022-12-18T13:05:50;-0.80;93.80
1830;DHT22;914;48.118;11.600;2022-12-18T13:08:25;-1.40;93.50
1830;DHT22;914;48.118;11.600;2022-12-18T13:10:53;-1.40;94.80
1830;DHT22;914;48.118;11.600;2022-12-18T13:13:55;-1.40;94.90
1830;DHT22;914;48.118;11.600;2022-12-18T13:16:26;-1.10;95.10
1830;DHT22;914;48.118;11.600;2022-12-18T13:18:57;-1.40;95.10
1830;DHT22;914;48.118;11.600;2022-12-18T13:21:32;-1.20;95.60
1830;DHT22;914;48.118;11.600;2022-12-18T13:26:47;-1.10;95.50
1830;DHT22;914;48.118;11.600;2022-12-18T13:29:44;-1.10;94.90
1830;DHT22;914;48.118;11.600;2022-12-18T13:32:24;-1.10;94.50
1830;DHT22;914;48.118;11.600;2022-12-18T13:37:56;-1.60;95.00
1830;DHT22;914;48.118;11.600;2022-12-18T13:43:22;-0.90;95.60
1830;DHT22;914;48.118;11.600;2022-12-18T13:46:01;-0.90;95.20
1830;DHT22;914;48.118;11.600;2022-12-18T13:48:32;-0.70;95.10
1830;DHT22;914;48.118;11.600;2022-12-18T13:51:05;-0.70;94.60
1830;DHT22;914;48.118;11.600;2022-12-18T13:53:36;-0.70;94.60
1830;DHT22;914;48.118;11.600;2022-12-18T13:56:03;-0.80;94.30
1830;DHT22;914;48.118;11.600;2022-12-18T13:58:29;-0.80;94.70
1830;DHT22;914;48.118;11.600;2022-12-18T14:00:54;-0.80;94.80
1830;DHT22;914;48.118;11.600;2022-12-18T14:03:26;-0.60;94.40
1830;DHT22;914;48.118;11.600;2022-12-18T14:06:15;-0.50;93.90
1830;DHT22;914;48.118;11.600;2022-12-18T14:08:41;-0.70;94.30
1830;DHT22;914;48.118;11.600;2022-12-18T14:11:19;-0.70;94.30
1830;DHT22;914;48.118;11.600;2022-12-18T14:13:46;-0.40;93.70
1830;DHT22;914;48.118;11.600;2022-12-18T14:16:14;-0.70;93.30
1830;DHT22;914;48.118;11.600;2022-12-18T14:18:56;-0.90;93.90
1830;DHT22;914;48.118;11.600;2022-12-18T14:21:28;-1.10;94.40
1830;DHT22;914;48.118;11.600;2022-12-18T14:26:39;-1.30;95.60
1830;DHT22;914;48.118;11.600;2022-12-18T14:29:29;-1.00;95.90
1830;DHT22;914;48.118;11.600;2022-12-18T14:32:11;-0.80;95.30
1830;DHT22;914;48.118;11.600;2022-12-18T14:34:47;-0.70;94.30
1830;DHT22;914;48.118;11.600;2022-12-18T14:37:15;-0.60;94.40
1830;DHT22;914;48.118;11.600;2022-12-18T14:39:59;-0.60;94.40
1830;DHT22;914;48.118;11.600;2022-12-18T14:42:28;-0.60;94.20
1830;DHT22;914;48.118;11.600;2022-12-18T14:45:32;-0.70;94.30
1830;DHT22;914;48.118;11.600;2022-12-18T14:47:59;-1.30;93.80
1830;DHT22;914;48.118;11.600;2022-12-18T14:50:25;-1.20;95.30
1830;DHT22;914;48.118;11.600;2022-12-18T14:52:52;-1.40;94.90
1830;DHT22;914;48.118;11.600;2022-12-18T14:55:18;-1.40;95.30
1830;DHT22;914;48.118;11.600;2022-12-18T14:57:45;-1.10;95.60
1830;DHT22;914;48.118;11.600;2022-12-18T15:00:17;-0.90;95.30
1830;DHT22;914;48.118;11.600;2022-12-18T15:02:50;-0.90;94.80
1830;DHT22;914;48.118;11.600;2022-12-18T15:05:28;-0.80;94.90
1830;DHT22;914;48.118;11.600;2022-12-18T15:07:56;-0.60;94.90
1830;DHT22;914;48.118;11.600;2022-12-18T15:10:30;-0.70;94.40
1830;DHT22;914;48.118;11.600;2022-12-18T15:23:21;-1.00;94.90
1830;DHT22;914;48.118;11.600;2022-12-18T15:25:54;-0.80;94.80
1830;DHT22;914;48.118;11.600;2022-12-18T15:28:34;-0.70;94.40
1830;DHT22;914;48.118;11.600;2022-12-18T15:31:03;-0.70;94.10
1830;DHT22;914;48.118;11.600;2022-12-18T15:33:35;-0.70;94.10
1830;DHT22;914;48.118;11.600;2022-12-18T15:36:04;-1.40;93.80
1830;DHT22;914;48.118;11.600;2022-12-18T15:38:31;-1.70;94.70
1830;DHT22;914;48.118;11.600;2022-12-18T15:40:57;-1.60;95.20
1830;DHT22;914;48.118;11.600;2022-12-18T15:43:24;-1.50;95.60
1830;DHT22;914;48.118;11.600;2022-12-18T15:46:04;-1.30;95.60
1830;DHT22;914;48.118;11.600;2022-12-18T15:48:33;-1.10;95.60
1830;DHT22;914;48.118;11.600;2022-12-18T15:51:00;-1.10;95.40
1830;DHT22;914;48.118;11.600;2022-12-18T15:53:31;-1.10;95.30
1830;DHT22;914;48.118;11.600;2022-12-18T15:55:58;-0.90;95.10
1830;DHT22;914;48.118;11.600;2022-12-18T15:58:42;-1.00;94.80
1830;DHT22;914;48.118;11.600;2022-12-18T16:01:09;-1.10;94.20
1830;DHT22;914;48.118;11.600;2022-12-18T16:03:38;-1.10;94.60
1830;DHT22;914;48.118;11.600;2022-12-18T16:06:03;-1.00;94.70
1830;DHT22;914;48.118;11.600;2022-12-18T16:08:29;-0.90;94.60
1830;DHT22;914;48.118;11.600;2022-12-18T16:10:56;-1.10;94.30
1830;DHT22;914;48.118;11.600;2022-12-18T16:13:25;-1.40;94.40
1830;DHT22;914;48.118;11.600;2022-12-18T16:15:50;-1.60;95.40
1830;DHT22;914;48.118;11.600;2022-12-18T16:18:16;-1.50;95.70
1830;DHT22;914;48.118;11.600;2022-12-18T16:20:42;-1.30;95.70
1830;DHT22;914;48.118;11.600;2022-12-18T16:23:07;-1.20;95.70
1830;DHT22;914;48.118;11.600;2022-12-18T16:25:33;-1.00;95.40
1830;DHT22;914;48.118;11.600;2022-12-18T16:27:59;-1.10;95.10
1830;DHT22;914;48.118;11.600;2022-12-18T16:30:27;-1.10;95.00
1830;DHT22;914;48.118;11.600;2022-12-18T16:32:54;-1.10;95.00
1830;DHT22;914;48.118;11.600;2022-12-18T16:35:20;-1.00;94.80
1830;DHT22;914;48.118;11.600;2022-12-18T16:37:46;-1.00;94.60
1830;DHT22;914;48.118;11.600;2022-12-18T16:40:14;-1.10;94.50
1830;DHT22;914;48.118;11.600;2022-12-18T16:42:42;-1.00;94.60
1830;DHT22;914;48.118;11.600;2022-12-18T16:45:12;-1.20;94.70
1830;DHT22;914;48.118;11.600;2022-12-18T16:47:37;-1.10;94.80
1830;DHT22;914;48.118;11.600;2022-12-18T16:50:04;-1.10;94.50
1830;DHT22;914;48.118;11.600;2022-12-18T16:52:31;-1.10;94.70
1830;DHT22;914;48.118;11.600;2022-12-18T16:54:56;-1.10;94.60
1830;DHT22;914;48.118;11.600;2022-12-18T16:57:22;-1.00;94.50
1830;DHT22;914;48.118;11.600;2022-12-18T16:59:48;-0.90;94.40
1830;DHT22;914;48.118;11.600;2022-12-18T17:02:16;-0.90;94.20
1830;DHT22;914;48.118;11.600;2022-12-18T17:04:43;-0.90;94.20
1830;DHT22;914;48.118;11.600;2022-12-18T17:07:09;-0.90;94.30
1830;DHT22;914;48.118;11.600;2022-12-18T17:09:36;-0.90;94.10
1830;DHT22;914;48.118;11.600;2022-12-18T17:12:02;-1.00;94.10
1830;DHT22;914;48.118;11.600;2022-12-18T17:14:27;-1.00;94.30
1830;DHT22;914;48.118;11.600;2022-12-18T17:16:54;-1.20;94.20
1830;DHT22;914;48.118;11.600;2022-12-18T17:19:20;-1.20;94.60
1830;DHT22;914;48.118;11.600;2022-12-18T17:21:49;-1.30;94.80
1830;DHT22;914;48.118;11.600;2022-12-18T17:24:15;-1.20;94.90
1830;DHT22;914;48.118;11.600;2022-12-18T17:26:41;-1.10;94.60
1830;DHT22;914;48.118;11.600;2022-12-18T17:29:07;-1.00;94.30
1830;DHT22;914;48.118;11.600;2022-12-18T17:31:34;-1.00;94.30
1830;DHT22;914;48.118;11.600;2022-12-18T17:34:03;-0.90;94.20
1830;DHT22;914;48.118;11.600;2022-12-18T17:36:29;-0.90;94.20
1830;DHT22;914;48.118;11.600;2022-12-18T17:38:59;-1.00;94.20
1830;DHT22;914;48.118;11.600;2022-12-18T17:41:26;-0.90;94.50
1830;DHT22;914;48.118;11.600;2022-12-18T17:43:53;-0.90;94.40
1830;DHT22;914;48.118;11.600;2022-12-18T17:46:19;-0.90;94.40
1830;DHT22;914;48.118;11.600;2022-12-18T17:48:45;-0.90;94.00